Time;durP1;ratioP1;P1;durP2;ratioP2;P2;SDS_P1;SDS_P2;PMS_P1;PMS_P2;Temp;Humidity;BMP_temperature;BMP_pressure;BME280_temperature;BME280_humidity;BME280_pressure;Samples;Min_cycle;Max_cycle;Signal;HPM_P1;HPM_P2
2023/04/22 00:00:49;;;;;;;8.82;7.93;;;;;;;;;;5280587;28;20347;-70
2023/04/22 00:03:23;;;;;;;8.23;7.53;;;;;;;;;;5281960;28;20029;-70
2023/04/22 00:05:54;;;;;;;7.95;7.15;;;;;;;;;;5281277;28;20416;-71
2023/04/22 00:08:25;;;;;;;8.00;7.18;;;;;;;;;;5283678;28;20040;-70
2023/04/22 00:10:57;;;;;;;8.48;7.65;;;;;;;;;;5285396;28;20020;-70
2023/04/22 00:13:28;;;;;;;8.95;8.05;;;;;;;;;;5285838;28;20052;-70
2023/04/22 00:15:59;;;;;;;8.90;8.10;;;;;;;;;;5283972;28;20024;-71
2023/04/22 00:18:32;;;;;;;10.10;9.20;;;;;;;;;;5285527;28;20463;-71
2023/04/22 00:21:04;;;;;;;10.05;9.15;;;;;;;;;;5285317;28;20470;-70
2023/04/22 00:23:36;;;;;;;9.70;8.80;;;;;;;;;;5284648;28;20017;-70
2023/04/22 00:26:07;;;;;;;8.93;8.02;;;;;;;;;;5285159;28;20410;-70
2023/04/22 00:28:38;;;;;;;9.27;8.45;;;;;;;;;;5284813;28;20066;-71
2023/04/22 00:31:09;;;;;;;8.25;7.55;;;;;;;;;;5284775;28;20036;-70
2023/04/22 00:33:40;;;;;;;8.18;7.48;;;;;;;;;;5284996;28;20036;-71
2023/04/22 00:36:11;;;;;;;8.43;7.72;;;;;;;;;;5284735;28;20024;-70
2023/04/22 00:38:46;;;;;;;7.68;7.08;;;;;;;;;;5284803;28;20055;-71
2023/04/22 00:41:18;;;;;;;7.97;7.28;;;;;;;;;;5285290;28;20067;-70
2023/04/22 00:43:51;;;;;;;9.27;8.32;;;;;;;;;;5283740;28;20025;-70
2023/04/22 00:46:22;;;;;;;8.38;7.68;;;;;;;;;;5285002;28;20024;-70
2023/04/22 00:48:54;;;;;;;9.30;8.40;;;;;;;;;;5284546;28;20020;-70
2023/04/22 00:51:25;;;;;;;9.55;8.75;;;;;;;;;;5284761;28;20375;-72
2023/04/22 00:53:56;;;;;;;9.57;8.65;;;;;;;;;;5284415;28;20955;-71
2023/04/22 00:56:28;;;;;;;10.30;9.40;;;;;;;;;;5284940;28;20372;-71
2023/04/22 00:58:59;;;;;;;10.10;9.20;;;;;;;;;;5283692;28;20020;-70
2023/04/22 01:01:31;;;;;;;9.04;8.24;;;;;;;;;;5284642;28;20126;-71
2023/04/22 01:04:02;;;;;;;9.27;7.13;;;;;;;;;;5283772;28;20024;-71
2023/04/22 01:06:34;;;;;;;9.07;8.18;;;;;;;;;;5284360;28;20093;-71
2023/04/22 01:09:06;;;;;;;8.48;7.72;;;;;;;;;;5284605;28;20012;-70
2023/04/22 01:11:37;;;;;;;8.07;7.38;;;;;;;;;;5283832;28;20044;-71
2023/04/22 01:14:08;;;;;;;7.80;7.13;;;;;;;;;;5284650;28;20035;-70
2023/04/22 01:16:39;;;;;;;8.63;7.93;;;;;;;;;;5284081;28;20056;-71
2023/04/22 01:19:11;;;;;;;8.82;8.02;;;;;;;;;;5283616;28;20023;-71
2023/04/22 01:21:43;;;;;;;8.82;8.00;;;;;;;;;;5284073;28;20029;-71
2023/04/22 01:24:15;;;;;;;9.13;8.32;;;;;;;;;;5284574;28;20467;-71
2023/04/22 01:26:47;;;;;;;8.63;7.85;;;;;;;;;;5281818;28;20095;-71
2023/04/22 01:29:18;;;;;;;7.85;7.25;;;;;;;;;;5283319;28;20012;-71
2023/04/22 01:31:49;;;;;;;8.85;8.05;;;;;;;;;;5282386;28;20042;-71
2023/04/22 01:34:21;;;;;;;8.63;7.82;;;;;;;;;;5282593;28;20032;-71
2023/04/22 01:36:53;;;;;;;8.82;8.02;;;;;;;;;;5282695;28;20020;-70
2023/04/22 01:39:24;;;;;;;8.85;8.10;;;;;;;;;;5282400;28;20467;-71
2023/04/22 01:41:57;;;;;;;8.45;7.65;;;;;;;;;;5282429;28;20074;-71
2023/04/22 01:44:28;;;;;;;7.95;7.28;;;;;;;;;;5282873;28;20103;-71
2023/04/22 01:46:59;;;;;;;8.38;7.60;;;;;;;;;;5281747;28;20100;-71
2023/04/22 01:49:30;;;;;;;7.68;7.07;;;;;;;;;;5282730;28;20017;-72
2023/04/22 01:52:02;;;;;;;7.38;6.78;;;;;;;;;;5282548;28;20092;-71
2023/04/22 01:54:33;;;;;;;6.78;6.20;;;;;;;;;;5281688;28;20060;-71
2023/04/22 01:57:10;;;;;;;7.28;6.68;;;;;;;;;;5282366;28;20023;-71
2023/04/22 01:59:41;;;;;;;6.45;5.95;;;;;;;;;;5282063;28;20067;-71
2023/04/22 02:02:12;;;;;;;6.78;6.28;;;;;;;;;;5282105;28;20375;-71
2023/04/22 02:04:43;;;;;;;6.72;6.22;;;;;;;;;;5282016;28;20038;-71
2023/04/22 02:07:15;;;;;;;7.05;6.40;;;;;;;;;;5281807;28;20027;-71
2023/04/22 02:09:46;;;;;;;6.28;5.82;;;;;;;;;;5282168;28;20051;-71
2023/04/22 02:12:17;;;;;;;7.15;6.45;;;;;;;;;;5282432;28;20043;-71
2023/04/22 02:14:48;;;;;;;6.93;6.32;;;;;;;;;;5280995;28;20024;-71
2023/04/22 02:17:21;;;;;;;6.97;6.47;;;;;;;;;;5282440;28;20374;-71
2023/04/22 02:19:52;;;;;;;6.72;6.13;;;;;;;;;;5281820;28;20104;-71
2023/04/22 02:22:23;;;;;;;6.90;6.30;;;;;;;;;;5281731;28;20530;-71
2023/04/22 02:24:54;;;;;;;6.90;6.30;;;;;;;;;;5245395;28;1037162;-71
2023/04/22 02:27:26;;;;;;;6.88;6.28;;;;;;;;;;5283494;28;20502;-71
2023/04/22 02:29:57;;;;;;;7.00;6.40;;;;;;;;;;5280957;28;20403;-71
2023/04/22 02:32:28;;;;;;;6.44;5.92;;;;;;;;;;5282994;28;20027;-71
2023/04/22 02:35:00;;;;;;;6.97;6.47;;;;;;;;;;5282347;28;20035;-71
2023/04/22 02:37:32;;;;;;;7.35;6.72;;;;;;;;;;5281809;28;20034;-71
2023/04/22 02:40:04;;;;;;;7.57;6.90;;;;;;;;;;5282623;28;20456;-71
2023/04/22 02:42:35;;;;;;;7.25;6.60;;;;;;;;;;5281573;28;20111;-72
2023/04/22 02:45:06;;;;;;;6.47;5.97;;;;;;;;;;5282590;28;20035;-71
2023/04/22 02:47:38;;;;;;;6.63;6.13;;;;;;;;;;5282402;28;20055;-71
2023/04/22 02:50:09;;;;;;;7.07;6.47;;;;;;;;;;5282036;28;20112;-71
2023/04/22 02:52:40;;;;;;;6.88;6.38;;;;;;;;;;5282028;28;20033;-71
2023/04/22 02:55:11;;;;;;;7.32;6.72;;;;;;;;;;5282604;28;20029;-71
2023/04/22 02:57:42;;;;;;;7.28;6.68;;;;;;;;;;5281352;28;20266;-71
2023/04/22 03:00:14;;;;;;;6.58;6.08;;;;;;;;;;5282629;28;20104;-71
2023/04/22 03:02:45;;;;;;;7.40;6.80;;;;;;;;;;5281846;28;20024;-72
2023/04/22 03:05:16;;;;;;;7.50;6.90;;;;;;;;;;5281583;28;20024;-71
2023/04/22 03:07:48;;;;;;;6.40;5.90;;;;;;;;;;5282102;28;20013;-71
2023/04/22 03:10:19;;;;;;;7.63;7.03;;;;;;;;;;5282555;28;20035;-71
2023/04/22 03:12:50;;;;;;;8.25;7.55;;;;;;;;;;5280938;28;20039;-71
2023/04/22 03:15:21;;;;;;;7.05;6.53;;;;;;;;;;5282303;28;20040;-71
2023/04/22 03:17:52;;;;;;;8.27;7.47;;;;;;;;;;5280815;28;20028;-71
2023/04/22 03:20:24;;;;;;;8.02;7.32;;;;;;;;;;5282225;28;20028;-71
2023/04/22 03:22:55;;;;;;;8.48;7.78;;;;;;;;;;5281938;28;20367;-72
2023/04/22 03:25:26;;;;;;;9.05;8.25;;;;;;;;;;5281396;28;20060;-71
2023/04/22 03:27:57;;;;;;;8.52;7.72;;;;;;;;;;5281569;28;20274;-71
2023/04/22 03:30:29;;;;;;;7.85;7.15;;;;;;;;;;5282131;28;20484;-72
2023/04/22 03:33:00;;;;;;;7.97;7.38;;;;;;;;;;5280849;28;20123;-72
2023/04/22 03:35:31;;;;;;;7.46;6.86;;;;;;;;;;5281957;28;20031;-72
2023/04/22 03:38:02;;;;;;;7.78;7.13;;;;;;;;;;5281694;28;20021;-71
2023/04/22 03:40:33;;;;;;;8.40;7.60;;;;;;;;;;5281509;28;20112;-71
2023/04/22 03:43:04;;;;;;;7.90;7.20;;;;;;;;;;5280491;28;20028;-71
2023/04/22 03:45:36;;;;;;;7.57;6.97;;;;;;;;;;5281521;28;20028;-72
2023/04/22 03:48:07;;;;;;;8.63;7.90;;;;;;;;;;5281212;28;20274;-71
2023/04/22 03:50:38;;;;;;;8.55;7.75;;;;;;;;;;5281409;28;20386;-72
2023/04/22 03:53:09;;;;;;;8.30;7.50;;;;;;;;;;5281143;28;20040;-74
2023/04/22 03:55:40;;;;;;;8.77;8.07;;;;;;;;;;5281281;28;20021;-71
2023/04/22 03:58:11;;;;;;;9.98;8.15;;;;;;;;;;5282064;28;20024;-71
2023/04/22 04:00:43;;;;;;;10.20;9.20;;;;;;;;;;5280841;28;20047;-72
2023/04/22 04:03:14;;;;;;;9.35;8.55;;;;;;;;;;5281953;28;20028;-71
2023/04/22 04:05:45;;;;;;;8.77;7.97;;;;;;;;;;5281219;28;20020;-71
2023/04/22 04:08:16;;;;;;;9.45;8.65;;;;;;;;;;5281324;28;20024;-71
2023/04/22 04:10:47;;;;;;;10.23;9.27;;;;;;;;;;5281545;28;20048;-71
2023/04/22 04:13:19;;;;;;;9.90;9.00;;;;;;;;;;5281719;28;20035;-71
2023/04/22 04:15:51;;;;;;;8.73;7.93;;;;;;;;;;5280278;28;20019;-72
2023/04/22 04:18:22;;;;;;;8.93;8.23;;;;;;;;;;5281651;28;20016;-71
2023/04/22 04:20:53;;;;;;;9.27;8.48;;;;;;;;;;5280236;28;20017;-72
2023/04/22 04:23:25;;;;;;;10.25;8.75;;;;;;;;;;5281741;28;20020;-72
2023/04/22 04:25:59;;;;;;;9.98;9.07;;;;;;;;;;5280609;28;20076;-72
2023/04/22 04:28:31;;;;;;;8.57;7.88;;;;;;;;;;5280289;28;20103;-72
2023/04/22 04:31:02;;;;;;;9.30;8.60;;;;;;;;;;5280959;28;20119;-72
2023/04/22 04:33:35;;;;;;;8.20;7.50;;;;;;;;;;5281091;28;20032;-72
2023/04/22 04:36:09;;;;;;;8.70;8.00;;;;;;;;;;5280081;28;20439;-72
2023/04/22 04:38:40;;;;;;;9.00;8.20;;;;;;;;;;5280599;28;20093;-72
2023/04/22 04:41:11;;;;;;;9.55;8.68;;;;;;;;;;5281122;28;20066;-72
2023/04/22 04:43:45;;;;;;;8.98;8.20;;;;;;;;;;5280172;28;20028;-72
2023/04/22 04:46:16;;;;;;;9.48;8.60;;;;;;;;;;5281361;28;20094;-71
2023/04/22 04:48:49;;;;;;;8.80;8.00;;;;;;;;;;5280739;28;20070;-72
2023/04/22 04:51:20;;;;;;;9.43;8.52;;;;;;;;;;5280379;28;20016;-72
2023/04/22 04:53:51;;;;;;;8.88;8.13;;;;;;;;;;5281904;28;20048;-71
2023/04/22 04:56:23;;;;;;;9.18;8.18;;;;;;;;;;5284273;28;20023;-72
2023/04/22 04:58:55;;;;;;;8.20;7.50;;;;;;;;;;5284252;28;20013;-72
2023/04/22 05:01:26;;;;;;;8.63;7.85;;;;;;;;;;5284825;28;20448;-72
2023/04/22 05:03:57;;;;;;;8.05;7.40;;;;;;;;;;5283574;28;20040;-73
2023/04/22 05:06:28;;;;;;;9.13;8.32;;;;;;;;;;5284654;28;20070;-71
2023/04/22 05:08:59;;;;;;;10.32;9.43;;;;;;;;;;5284251;28;20278;-74
2023/04/22 05:11:31;;;;;;;10.25;9.35;;;;;;;;;;5283724;28;20048;-73
2023/04/22 05:14:02;;;;;;;10.70;9.70;;;;;;;;;;5284249;28;20046;-73
2023/04/22 05:16:33;;;;;;;10.13;9.23;;;;;;;;;;5284034;28;20103;-74
2023/04/22 05:19:04;;;;;;;10.70;9.70;;;;;;;;;;5283168;28;20024;-73
2023/04/22 05:21:35;;;;;;;9.77;8.85;;;;;;;;;;5284291;28;20379;-74
2023/04/22 05:24:07;;;;;;;9.93;9.02;;;;;;;;;;5283309;28;20056;-73
2023/04/22 05:26:38;;;;;;;9.15;8.35;;;;;;;;;;5283458;28;20123;-73
2023/04/22 05:29:09;;;;;;;9.43;8.63;;;;;;;;;;5284193;28;20066;-72
2023/04/22 05:31:40;;;;;;;9.18;8.30;;;;;;;;;;5283011;28;20017;-73
2023/04/22 05:34:11;;;;;;;9.46;8.52;;;;;;;;;;5284182;28;20028;-73
2023/04/22 05:36:43;;;;;;;9.50;8.73;;;;;;;;;;5283674;28;20012;-73
2023/04/22 05:39:14;;;;;;;8.57;7.88;;;;;;;;;;5283294;28;20118;-72
2023/04/22 05:41:45;;;;;;;9.65;8.75;;;;;;;;;;5283341;28;20017;-72
2023/04/22 05:44:17;;;;;;;9.32;8.48;;;;;;;;;;5284209;28;20017;-72
2023/04/22 05:46:48;;;;;;;10.85;9.85;;;;;;;;;;5283114;28;20018;-72
2023/04/22 05:49:19;;;;;;;10.57;9.68;;;;;;;;;;5283897;28;20032;-72
2023/04/22 05:51:50;;;;;;;11.46;10.36;;;;;;;;;;5283228;28;20267;-72
2023/04/22 05:54:21;;;;;;;12.73;11.43;;;;;;;;;;5282824;28;20021;-72
2023/04/22 05:56:52;;;;;;;12.62;11.46;;;;;;;;;;5283018;28;20471;-73
2023/04/22 05:59:24;;;;;;;13.32;11.98;;;;;;;;;;5282900;28;20479;-73
2023/04/22 06:01:55;;;;;;;11.50;10.35;;;;;;;;;;5282927;28;20502;-73
2023/04/22 06:04:26;;;;;;;11.55;10.52;;;;;;;;;;5282922;28;20077;-73
2023/04/22 06:06:57;;;;;;;10.88;9.98;;;;;;;;;;5281276;28;20030;-73
2023/04/22 06:09:28;;;;;;;9.75;8.88;;;;;;;;;;5283782;28;20174;-73
2023/04/22 06:12:01;;;;;;;9.70;8.90;;;;;;;;;;5282903;28;20036;-73
2023/04/22 06:14:32;;;;;;;9.27;8.57;;;;;;;;;;5282278;28;20769;-74
2023/04/22 06:17:03;;;;;;;7.90;7.20;;;;;;;;;;5282870;28;20031;-73
2023/04/22 06:19:34;;;;;;;8.88;8.15;;;;;;;;;;5283054;28;20142;-73
2023/04/22 06:22:05;;;;;;;8.80;7.57;;;;;;;;;;5282274;28;20421;-74
2023/04/22 06:24:36;;;;;;;8.20;7.50;;;;;;;;;;5282831;28;20020;-72
2023/04/22 06:27:07;;;;;;;8.52;7.82;;;;;;;;;;5282880;28;20155;-72
2023/04/22 06:29:39;;;;;;;8.60;7.82;;;;;;;;;;5281439;28;20262;-73
2023/04/22 06:32:10;;;;;;;7.80;7.13;;;;;;;;;;5283010;28;20261;-72
2023/04/22 06:34:41;;;;;;;7.78;7.18;;;;;;;;;;5281457;28;20017;-72
2023/04/22 06:37:12;;;;;;;7.40;6.80;;;;;;;;;;5282743;28;20028;-72
2023/04/22 06:39:43;;;;;;;7.40;6.80;;;;;;;;;;5282238;28;20547;-73
2023/04/22 06:42:15;;;;;;;7.45;6.55;;;;;;;;;;5281916;28;20741;-72
2023/04/22 06:44:46;;;;;;;7.22;6.57;;;;;;;;;;5282022;28;20289;-72
2023/04/22 06:47:17;;;;;;;6.10;5.53;;;;;;;;;;5282531;28;20289;-71
2023/04/22 06:49:49;;;;;;;5.90;5.47;;;;;;;;;;5281104;28;20447;-71
2023/04/22 06:52:20;;;;;;;6.20;5.78;;;;;;;;;;5282512;28;20012;-71
2023/04/22 06:54:52;;;;;;;6.57;6.00;;;;;;;;;;5282180;28;20078;-71
2023/04/22 06:57:23;;;;;;;7.30;6.70;;;;;;;;;;5281742;28;20542;-71
2023/04/22 06:59:54;;;;;;;6.03;5.43;;;;;;;;;;5281893;28;20489;-71
2023/04/22 07:02:25;;;;;;;7.25;6.55;;;;;;;;;;5282416;28;20016;-71
2023/04/22 07:04:57;;;;;;;6.20;5.57;;;;;;;;;;5280693;28;20028;-71
2023/04/22 07:07:28;;;;;;;5.75;5.15;;;;;;;;;;5282175;28;20491;-71
2023/04/22 07:09:59;;;;;;;5.85;5.00;;;;;;;;;;5280913;28;20436;-73
2023/04/22 07:12:30;;;;;;;5.53;4.90;;;;;;;;;;5281839;28;20090;-71
2023/04/22 07:15:01;;;;;;;5.22;4.78;;;;;;;;;;5281849;28;20020;-72
2023/04/22 07:17:33;;;;;;;4.60;4.20;;;;;;;;;;5280803;28;20013;-71
2023/04/22 07:20:04;;;;;;;4.85;4.38;;;;;;;;;;5281827;28;20024;-71
2023/04/22 07:22:35;;;;;;;5.93;4.85;;;;;;;;;;5280881;28;20029;-72
2023/04/22 07:25:07;;;;;;;5.95;4.78;;;;;;;;;;5280561;28;20075;-72
2023/04/22 07:27:38;;;;;;;5.97;4.68;;;;;;;;;;5281486;28;20560;-72
2023/04/22 07:30:10;;;;;;;4.43;3.97;;;;;;;;;;5281240;28;20021;-71
2023/04/22 07:32:41;;;;;;;4.53;4.07;;;;;;;;;;5280532;28;20531;-71
2023/04/22 07:35:12;;;;;;;4.85;4.28;;;;;;;;;;5281998;28;20016;-70
2023/04/22 07:37:43;;;;;;;4.70;4.30;;;;;;;;;;5280391;28;20255;-72
2023/04/22 07:40:15;;;;;;;5.05;4.45;;;;;;;;;;5281759;28;20281;-71
2023/04/22 07:42:46;;;;;;;4.78;4.30;;;;;;;;;;5281139;28;20016;-72
2023/04/22 07:45:18;;;;;;;5.80;3.50;;;;;;;;;;5281225;28;20095;-71
2023/04/22 07:47:49;;;;;;;4.63;4.18;;;;;;;;;;5281122;28;20266;-72
2023/04/22 07:50:21;;;;;;;4.43;3.80;;;;;;;;;;5281791;28;20025;-72
2023/04/22 07:52:52;;;;;;;5.65;4.22;;;;;;;;;;5280187;28;20040;-71
2023/04/22 07:55:23;;;;;;;6.57;4.18;;;;;;;;;;5281907;28;20020;-72
2023/04/22 07:57:54;;;;;;;6.07;4.67;;;;;;;;;;5281280;28;20025;-71
2023/04/22 08:00:26;;;;;;;6.10;4.22;;;;;;;;;;5280958;28;20345;-71
2023/04/22 08:02:57;;;;;;;4.50;4.10;;;;;;;;;;5281010;28;20017;-71
2023/04/22 08:05:28;;;;;;;4.45;4.05;;;;;;;;;;5281340;28;20105;-71
2023/04/22 08:07:59;;;;;;;7.17;4.63;;;;;;;;;;5279942;28;20028;-71
2023/04/22 08:10:30;;;;;;;4.70;4.20;;;;;;;;;;5281227;28;20263;-73
2023/04/22 08:13:02;;;;;;;5.05;4.05;;;;;;;;;;5280239;28;20644;-71
2023/04/22 08:15:33;;;;;;;4.22;3.83;;;;;;;;;;5280747;28;20545;-71
2023/04/22 08:18:04;;;;;;;5.72;4.38;;;;;;;;;;5281167;28;20012;-71
2023/04/22 08:20:35;;;;;;;8.30;4.60;;;;;;;;;;5280210;28;20044;-70
2023/04/22 08:23:06;;;;;;;4.30;3.80;;;;;;;;;;5281076;28;20632;-70
2023/04/22 08:25:38;;;;;;;4.47;3.80;;;;;;;;;;5280685;28;20283;-71
2023/04/22 08:28:09;;;;;;;3.85;3.33;;;;;;;;;;5280937;28;20365;-71
2023/04/22 08:30:41;;;;;;;4.95;3.53;;;;;;;;;;5284880;28;20034;-71
2023/04/22 08:33:12;;;;;;;3.77;3.37;;;;;;;;;;5285066;28;20040;-70
2023/04/22 08:35:43;;;;;;;3.72;3.35;;;;;;;;;;5283796;28;20769;-70
2023/04/22 08:38:14;;;;;;;5.50;3.73;;;;;;;;;;5285111;28;20059;-70
2023/04/22 08:40:46;;;;;;;3.70;3.40;;;;;;;;;;5284305;28;20259;-71
2023/04/22 08:43:17;;;;;;;3.63;2.55;;;;;;;;;;5284525;28;20027;-69
2023/04/22 08:45:49;;;;;;;3.70;2.88;;;;;;;;;;5284535;28;20021;-70
2023/04/22 08:48:20;;;;;;;3.25;2.95;;;;;;;;;;5283882;28;20075;-70
2023/04/22 08:50:52;;;;;;;2.70;2.20;;;;;;;;;;5284145;28;20104;-70
2023/04/22 08:53:23;;;;;;;2.47;2.28;;;;;;;;;;5284625;28;20430;-70
2023/04/22 08:55:55;;;;;;;4.47;2.43;;;;;;;;;;5283321;28;20103;-70
2023/04/22 08:58:26;;;;;;;2.83;2.17;;;;;;;;;;5284830;28;20603;-70
2023/04/22 09:00:58;;;;;;;2.75;2.10;;;;;;;;;;5284078;28;20522;-70
2023/04/22 09:03:30;;;;;;;3.63;2.80;;;;;;;;;;5283435;28;20048;-71
2023/04/22 09:06:04;;;;;;;4.75;2.25;;;;;;;;;;5284232;28;20021;-70
2023/04/22 09:08:35;;;;;;;2.83;2.53;;;;;;;;;;5284584;28;20375;-71
2023/04/22 09:11:06;;;;;;;3.53;2.05;;;;;;;;;;5283603;28;20017;-71
2023/04/22 09:13:38;;;;;;;2.47;2.13;;;;;;;;;;5283884;28;20037;-70
2023/04/22 09:16:09;;;;;;;3.38;2.20;;;;;;;;;;5284358;28;20275;-71
2023/04/22 09:18:41;;;;;;;2.85;2.33;;;;;;;;;;5283068;28;20028;-70
2023/04/22 09:21:12;;;;;;;3.47;2.60;;;;;;;;;;5284343;28;20406;-70
2023/04/22 09:23:51;;;;;;;4.13;2.40;;;;;;;;;;5282901;28;20048;-70
2023/04/22 09:26:23;;;;;;;2.92;2.60;;;;;;;;;;5284078;28;20376;-71
2023/04/22 09:28:57;;;;;;;4.20;2.65;;;;;;;;;;5283453;28;20015;-70
2023/04/22 09:31:28;;;;;;;2.53;2.00;;;;;;;;;;5283629;28;20024;-70
2023/04/22 09:34:00;;;;;;;2.40;1.73;;;;;;;;;;5283553;28;20033;-70
2023/04/22 09:36:33;;;;;;;3.00;2.13;;;;;;;;;;5283739;28;20077;-70
2023/04/22 09:39:06;;;;;;;2.45;1.52;;;;;;;;;;5282365;28;20024;-71
2023/04/22 09:41:38;;;;;;;4.25;1.58;;;;;;;;;;5284047;28;20052;-70
2023/04/22 09:44:12;;;;;;;3.10;1.50;;;;;;;;;;5283435;28;20070;-70
2023/04/22 09:46:44;;;;;;;2.67;1.58;;;;;;;;;;5282403;28;20024;-68
2023/04/22 09:49:15;;;;;;;2.85;1.70;;;;;;;;;;5283736;28;20104;-70
2023/04/22 09:51:47;;;;;;;3.35;1.58;;;;;;;;;;5280605;28;20017;-70
2023/04/22 09:54:18;;;;;;;1.77;1.02;;;;;;;;;;5281548;28;20506;-70
2023/04/22 09:56:50;;;;;;;2.40;1.57;;;;;;;;;;5280622;28;20025;-70
2023/04/22 09:59:23;;;;;;;2.78;1.60;;;;;;;;;;5280527;28;20025;-70
2023/04/22 10:01:59;;;;;;;2.35;1.75;;;;;;;;;;5281710;28;20459;-69
2023/04/22 10:04:30;;;;;;;2.55;1.50;;;;;;;;;;5283371;28;20386;-69
2023/04/22 10:07:01;;;;;;;2.23;1.90;;;;;;;;;;5282346;28;20021;-68
2023/04/22 10:09:33;;;;;;;2.67;2.05;;;;;;;;;;5283072;28;20263;-69
2023/04/22 10:12:04;;;;;;;3.20;1.80;;;;;;;;;;5282876;28;20395;-69
2023/04/22 10:14:35;;;;;;;2.85;2.17;;;;;;;;;;5281905;28;20029;-69
2023/04/22 10:17:07;;;;;;;2.43;2.00;;;;;;;;;;5282764;28;20073;-69
2023/04/22 10:19:39;;;;;;;4.00;2.33;;;;;;;;;;5281510;28;20607;-69
2023/04/22 10:22:10;;;;;;;2.67;1.98;;;;;;;;;;5282789;28;20013;-67
2023/04/22 10:24:43;;;;;;;2.45;2.22;;;;;;;;;;5281133;28;20009;-70
2023/04/22 10:27:19;;;;;;;2.25;1.42;;;;;;;;;;5277103;28;20025;-69
2023/04/22 10:29:50;;;;;;;3.28;1.50;;;;;;;;;;5281197;28;20013;-70
2023/04/22 10:32:21;;;;;;;2.85;1.85;;;;;;;;;;5282227;28;20025;-71
2023/04/22 10:35:06;;;;;;;2.10;1.67;;;;;;;;;;5281176;28;20096;-70
2023/04/22 10:37:40;;;;;;;2.78;1.77;;;;;;;;;;5281406;28;20020;-70
2023/04/22 10:40:15;;;;;;;2.28;1.20;;;;;;;;;;5281342;28;20374;-70
2023/04/22 10:42:48;;;;;;;3.45;1.65;;;;;;;;;;5281414;28;20028;-70
2023/04/22 10:45:22;;;;;;;1.77;1.08;;;;;;;;;;5282663;28;20020;-70
2023/04/22 10:47:53;;;;;;;2.00;1.10;;;;;;;;;;5281329;28;20021;-70
2023/04/22 10:50:26;;;;;;;1.53;0.90;;;;;;;;;;5282598;28;20352;-70
2023/04/22 10:53:20;;;;;;;3.80;1.35;;;;;;;;;;5280905;28;20028;-70
2023/04/22 10:55:52;;;;;;;3.22;1.27;;;;;;;;;;5280777;28;20376;-70
2023/04/22 10:58:23;;;;;;;2.97;1.20;;;;;;;;;;5281850;28;20013;-70
2023/04/22 11:01:01;;;;;;;3.70;1.63;;;;;;;;;;5281514;28;20024;-70
2023/04/22 11:03:33;;;;;;;3.20;1.40;;;;;;;;;;5281405;28;20021;-69
2023/04/22 11:06:14;;;;;;;4.72;1.55;;;;;;;;;;5281576;28;20375;-70
2023/04/22 11:08:46;;;;;;;3.10;1.42;;;;;;;;;;5280794;28;20016;-70
2023/04/22 11:11:18;;;;;;;3.67;1.75;;;;;;;;;;5282131;28;20051;-70
2023/04/22 11:13:50;;;;;;;3.22;1.80;;;;;;;;;;5281308;28;20068;-70
2023/04/22 11:16:22;;;;;;;3.95;2.10;;;;;;;;;;5281182;28;20051;-70
2023/04/22 11:18:54;;;;;;;3.97;2.40;;;;;;;;;;5281416;28;20047;-69
2023/04/22 11:21:26;;;;;;;5.28;2.30;;;;;;;;;;5281997;28;20032;-70
2023/04/22 11:24:01;;;;;;;3.85;2.70;;;;;;;;;;5280755;28;20028;-70
2023/04/22 11:26:34;;;;;;;3.83;3.40;;;;;;;;;;5281239;28;20119;-70
2023/04/22 11:29:05;;;;;;;4.30;2.60;;;;;;;;;;5281358;28;20027;-70
2023/04/22 11:31:36;;;;;;;5.07;3.00;;;;;;;;;;5280730;28;20021;-70
2023/04/22 11:34:08;;;;;;;3.67;3.00;;;;;;;;;;5281662;28;20771;-69
2023/04/22 11:36:41;;;;;;;4.50;2.40;;;;;;;;;;5281042;28;20048;-67
2023/04/22 11:39:15;;;;;;;3.30;2.88;;;;;;;;;;5281070;28;20095;-68
2023/04/22 11:41:46;;;;;;;3.88;3.50;;;;;;;;;;5281155;28;20463;-74
2023/04/22 11:44:22;;;;;;;4.53;3.17;;;;;;;;;;5280728;28;20032;-72
2023/04/22 11:46:55;;;;;;;4.15;2.90;;;;;;;;;;5280346;28;20676;-72
2023/04/22 11:49:26;;;;;;;4.10;3.30;;;;;;;;;;5281653;28;20048;-72
2023/04/22 11:51:57;;;;;;;5.15;3.45;;;;;;;;;;5278782;28;20050;-72
2023/04/22 11:54:29;;;;;;;4.67;3.40;;;;;;;;;;5279334;28;20063;-71
2023/04/22 11:57:02;;;;;;;4.63;3.63;;;;;;;;;;5279398;28;20618;-72
2023/04/22 11:59:33;;;;;;;4.65;3.33;;;;;;;;;;5279096;28;20062;-72
2023/04/22 12:02:05;;;;;;;3.50;3.15;;;;;;;;;;5279682;28;20013;-72
2023/04/22 12:04:37;;;;;;;4.47;4.05;;;;;;;;;;5283131;28;20460;-72
2023/04/22 12:07:08;;;;;;;3.95;3.55;;;;;;;;;;5284266;28;20031;-72
2023/04/22 12:09:40;;;;;;;4.85;4.45;;;;;;;;;;5284901;28;20012;-72
2023/04/22 12:12:11;;;;;;;5.75;4.13;;;;;;;;;;5285085;28;20398;-72
2023/04/22 12:14:44;;;;;;;4.37;3.97;;;;;;;;;;5284808;28;20055;-72
2023/04/22 12:17:18;;;;;;;3.97;3.58;;;;;;;;;;5285511;28;20258;-72
2023/04/22 12:19:54;;;;;;;4.65;4.20;;;;;;;;;;5283891;28;20100;-72
2023/04/22 12:22:26;;;;;;;4.47;4.03;;;;;;;;;;5285073;28;20025;-72
2023/04/22 12:24:58;;;;;;;5.40;4.32;;;;;;;;;;5284616;28;20064;-72
2023/04/22 12:27:30;;;;;;;3.72;3.42;;;;;;;;;;5284116;28;20416;-72
2023/04/22 12:30:02;;;;;;;4.60;4.20;;;;;;;;;;5284647;28;20032;-72
2023/04/22 12:32:34;;;;;;;5.53;4.60;;;;;;;;;;5284441;28;20029;-73
2023/04/22 12:35:07;;;;;;;7.40;4.75;;;;;;;;;;5265965;28;20409;-73
2023/04/22 12:37:38;;;;;;;4.90;4.40;;;;;;;;;;5284157;28;20016;-72
2023/04/22 12:40:10;;;;;;;5.97;4.57;;;;;;;;;;5284442;28;20460;-71
2023/04/22 12:42:41;;;;;;;5.43;4.93;;;;;;;;;;5284013;28;20108;-73
2023/04/22 12:45:12;;;;;;;5.93;4.88;;;;;;;;;;5284698;28;20070;-71
2023/04/22 12:47:45;;;;;;;7.67;5.30;;;;;;;;;;5283248;28;20020;-71
2023/04/22 12:50:16;;;;;;;6.18;5.25;;;;;;;;;;5284504;28;20267;-71
2023/04/22 12:52:47;;;;;;;6.37;5.53;;;;;;;;;;5283729;28;20025;-71
2023/04/22 12:55:19;;;;;;;6.00;5.40;;;;;;;;;;5283787;28;20316;-71
2023/04/22 12:57:51;;;;;;;7.43;5.43;;;;;;;;;;5283666;28;20346;-70
2023/04/22 13:00:23;;;;;;;5.93;5.43;;;;;;;;;;5284367;28;20522;-71
2023/04/22 13:02:54;;;;;;;5.63;5.07;;;;;;;;;;5282858;28;20048;-70
2023/04/22 13:05:25;;;;;;;5.97;5.40;;;;;;;;;;5284170;28;20474;-70
2023/04/22 13:07:57;;;;;;;5.53;5.13;;;;;;;;;;5283454;28;20025;-70
2023/04/22 13:10:28;;;;;;;5.97;5.45;;;;;;;;;;5283531;28;20728;-70
2023/04/22 13:13:02;;;;;;;6.43;5.82;;;;;;;;;;5283383;28;20048;-70
2023/04/22 13:15:35;;;;;;;6.03;5.38;;;;;;;;;;5282487;28;20024;-70
2023/04/22 13:18:06;;;;;;;6.30;5.75;;;;;;;;;;5283622;28;20013;-71
2023/04/22 13:20:38;;;;;;;5.85;5.35;;;;;;;;;;5283642;28;20021;-71
2023/04/22 13:23:10;;;;;;;5.97;5.20;;;;;;;;;;5283194;28;20028;-71
2023/04/22 13:25:41;;;;;;;5.47;5.00;;;;;;;;;;5283048;28;20048;-71
2023/04/22 13:28:12;;;;;;;7.15;6.05;;;;;;;;;;5283771;28;20017;-71
2023/04/22 13:30:43;;;;;;;6.43;5.85;;;;;;;;;;5282616;28;20065;-72
2023/04/22 13:33:15;;;;;;;6.65;5.97;;;;;;;;;;5284264;28;20108;-71
2023/04/22 13:35:46;;;;;;;5.45;4.95;;;;;;;;;;5282917;28;20278;-71
2023/04/22 13:38:17;;;;;;;6.55;5.95;;;;;;;;;;5282857;28;20450;-71
2023/04/22 13:40:48;;;;;;;6.22;5.72;;;;;;;;;;5282904;28;20027;-71
2023/04/22 13:43:20;;;;;;;9.10;6.30;;;;;;;;;;5284135;28;20017;-71
2023/04/22 13:45:51;;;;;;;7.28;6.05;;;;;;;;;;5282498;28;20024;-72
2023/04/22 13:48:22;;;;;;;6.15;5.65;;;;;;;;;;5283651;28;20100;-71
2023/04/22 13:50:54;;;;;;;6.78;6.18;;;;;;;;;;5282423;28;20521;-71
2023/04/22 13:53:25;;;;;;;6.45;5.63;;;;;;;;;;5283542;28;20494;-70
2023/04/22 13:55:56;;;;;;;6.97;6.28;;;;;;;;;;5282803;28;20017;-70
2023/04/22 13:58:27;;;;;;;8.18;7.32;;;;;;;;;;5282909;28;20375;-70
2023/04/22 14:00:58;;;;;;;7.28;6.57;;;;;;;;;;5282829;28;20103;-70
2023/04/22 14:03:30;;;;;;;6.65;6.05;;;;;;;;;;5282995;28;20042;-70
2023/04/22 14:06:02;;;;;;;7.13;6.43;;;;;;;;;;5282203;28;20027;-70
2023/04/22 14:08:33;;;;;;;6.50;5.90;;;;;;;;;;5282909;28;20027;-70
2023/04/22 14:11:05;;;;;;;7.18;6.10;;;;;;;;;;5282812;28;20316;-70
2023/04/22 14:13:37;;;;;;;7.85;6.38;;;;;;;;;;5282029;28;20471;-70
2023/04/22 14:16:10;;;;;;;6.75;6.15;;;;;;;;;;5282896;28;20467;-70
2023/04/22 14:18:41;;;;;;;7.72;6.93;;;;;;;;;;5281925;28;20028;-71
2023/04/22 14:21:12;;;;;;;7.22;6.55;;;;;;;;;;5283042;28;20021;-70
2023/04/22 14:23:43;;;;;;;6.38;5.85;;;;;;;;;;5282406;28;20463;-70
2023/04/22 14:26:15;;;;;;;7.80;6.68;;;;;;;;;;5281018;28;20075;-70
2023/04/22 14:28:46;;;;;;;7.37;6.53;;;;;;;;;;5282199;28;20031;-71
2023/04/22 14:31:18;;;;;;;7.53;6.70;;;;;;;;;;5283233;28;20820;-70
2023/04/22 14:33:49;;;;;;;7.57;6.97;;;;;;;;;;5281436;28;20064;-69
2023/04/22 14:36:21;;;;;;;8.10;6.57;;;;;;;;;;5282870;28;20467;-70
2023/04/22 14:38:52;;;;;;;7.20;6.55;;;;;;;;;;5282306;28;20349;-69
2023/04/22 14:41:23;;;;;;;6.82;6.20;;;;;;;;;;5282028;28;20672;-69
2023/04/22 14:43:54;;;;;;;6.43;5.88;;;;;;;;;;5282057;28;20146;-69
2023/04/22 14:46:26;;;;;;;6.23;5.73;;;;;;;;;;5282715;28;20511;-71
2023/04/22 14:48:57;;;;;;;7.63;4.90;;;;;;;;;;5281086;28;20274;-68
2023/04/22 14:51:29;;;;;;;4.65;4.25;;;;;;;;;;5282171;28;20021;-68
2023/04/22 14:54:00;;;;;;;5.18;4.68;;;;;;;;;;5281563;28;20302;-68
2023/04/22 14:56:31;;;;;;;4.83;4.20;;;;;;;;;;5282160;28;20019;-68
2023/04/22 14:59:02;;;;;;;4.50;3.33;;;;;;;;;;5282189;28;20259;-69
2023/04/22 15:01:34;;;;;;;3.47;3.17;;;;;;;;;;5281441;28;20019;-69
2023/04/22 15:04:06;;;;;;;3.25;2.95;;;;;;;;;;5281691;28;20294;-69
2023/04/22 15:06:38;;;;;;;3.70;3.40;;;;;;;;;;5281892;28;20078;-69
2023/04/22 15:09:09;;;;;;;3.08;2.72;;;;;;;;;;5280908;28;20024;-69